Airport Name : Lishe

Other Name : Ningbo

ICAO : ZSNB

IATA : NGB

FAA :

Latitude : 29.824944

Longitude : 121.465069

Country : China

Local Date and Time : 4/21/2018 5:56:00 PM

 

TAF (Terminal Aerodrome Forecast)

 

METAR (METeorological Aerodrome Report)

ZSNB 210900Z 15006MPS CAVOK 26/18 Q1011 NOSIG

ZSNB 210800Z 16006MPS CAVOK 27/18 Q1011 NOSIG

ZSNB 210700Z 16007MPS CAVOK 28/18 Q1011 NOSIG

ZSNB 210600Z 16006MPS 130V200 CAVOK 29/18 Q1011 NOSIG